Terminal Aerodrome Forecast
Issued by NWS Grand Forks, ND

Home | Current Version | Previous Version | Text Only | Print | Product List | Glossary On
Versions: 1 2 3 4 5 6 7 8 9 10 11 12 13 14
000
FTUS43 KFGF 142300
TAFGFK
TAF
KGFK 142322Z 1500/1524 32007KT P6SM BKN070
     FM150300 VRB04KT P6SM SCT070
     FM151800 28010KT P6SM SCT050=

USA.gov is the U.S. government's official web portal to all federal, state and local government web resources and services.